Topinabee, MI (49791)

2:15 PM EDT on March 24, 2017 (GMT -0400)
Northwest Burt Lake | | Change Station

Elev 626 ft 45.51 °N, 84.70 °W | Updated 9 minutes ago

Rain
Rain
37.0 °F
Feels Like 37 °F
N
1.0
Wind Variable Wind from NE
Gusts 3.0 mph

Today
High -- | Low -- °F
--% Chance of Precip.
Yesterday
High -- | Low -- °F
Precip. -- in
Pressure 30.01 in
Visibility 3.0 miles
Clouds Overcast 600 ft
Windchill 37 °F
Dew Point 36 °F
Humidity 94%
Rainfall 0.09 in
Snow Depth Not available.
7:33 AM 7:56 PM
Waning Crescent, 14% visible
METAR KPLN 241754Z AUTO 36007KT 3SM RA BR OVC006 03/01 A2999 RMK AO2 SLP162 P0007 60008 I6000 T00280011 10033 20006 53022
Pressure 30.01 in
Visibility 3.0 miles
Clouds Overcast 600 ft
Windchill 37 °F
Dew Point 36 °F
Humidity 94%
Rainfall 0.09 in
Snow Depth Not available.
7:33 AM 7:56 PM
Waning Crescent, 14% visible
METAR KPLN 241754Z AUTO 36007KT 3SM RA BR OVC006 03/01 A2999 RMK AO2 SLP162 P0007 60008 I6000 T00280011 10033 20006 53022

Get Severe Weather Alerts

Thanks for signing up!

Be on the lookout for a verification email in your inbox.

You'll start receiving the daily forecast at 8 AM.

×

10-Day Weather Forecast

Almanac

Astronomy

Mar. 24, 2017 Rise Set
Actual Time
Civil Twilight
Nautical Twilight
Astronomical Twilight
Moon
Length of Visible Light
Length of Day
Tomorrow will be .
, % of the Moon is Illuminated

Today's Extremes

State Highs State Lows

Community

WunderPhotos

Upload Photos

1,962,540 photos uploaded!

WunderBlog® & News

Nearby

Air Quality

  Air Quality AQ Index Pollutant
Not available.

Snow Depth

Station Depth Elevation

Earthquake Activity

City Distance Mag. Time & Date
Minimum magnitude displayed is 2.5.

Earthquake Activity

City Distance Mag. Time & Date
Minimum magnitude displayed is 2.5.

Coastal Water Temperatures

Place Temperature

Stations

Nearby Weather Stations

Station Location Temp. Windchill Dew Point Humidity Wind Precip. Elev Updated Type
                   

Watches & Warnings

There are currently no watches in effect.